createdAt,value
2018-05-18T00:01:26.574Z,15.8
2018-05-18T00:11:26.264Z,18.6
2018-05-18T00:21:27.130Z,18.9
2018-05-18T00:31:27.289Z,15.8
2018-05-18T00:41:26.134Z,14.5
2018-05-18T00:51:26.034Z,14.5
2018-05-18T01:01:27.487Z,16.7
2018-05-18T01:11:26.263Z,18.2
2018-05-18T01:21:26.488Z,20.8
2018-05-18T01:31:26.796Z,23.4
2018-05-18T01:41:27.002Z,24.4
2018-05-18T01:51:26.596Z,25.6
2018-05-18T02:01:26.527Z,28.3
2018-05-18T02:11:26.416Z,27.5
2018-05-18T02:21:26.630Z,25.2
2018-05-18T02:31:27.417Z,23.9
2018-05-18T02:41:28.014Z,23.3
2018-05-18T02:51:26.337Z,23.3
2018-05-18T03:01:26.995Z,24.1
2018-05-18T03:11:26.973Z,23.0
2018-05-18T03:21:27.053Z,23.3
2018-05-18T03:31:27.225Z,23.7
2018-05-18T03:41:25.911Z,26.4
2018-05-18T03:51:27.013Z,26.9
2018-05-18T04:01:26.594Z,29.7
2018-05-18T04:11:27.649Z,29.5
2018-05-18T04:21:26.749Z,29.0
2018-05-18T04:31:26.610Z,25.5
2018-05-18T04:41:26.231Z,27.3
2018-05-18T04:51:30.841Z,25.4
2018-05-18T05:01:26.825Z,27.3
2018-05-18T05:11:27.133Z,31.6
2018-05-18T05:21:28.265Z,32.3
2018-05-18T05:31:26.465Z,32.0
2018-05-18T05:41:27.867Z,31.5
2018-05-18T05:51:28.350Z,29.3
2018-05-18T06:01:28.126Z,29.5
2018-05-18T06:11:26.395Z,28.1
2018-05-18T06:21:26.921Z,28.9
2018-05-18T06:31:28.950Z,29.7
2018-05-18T06:41:26.512Z,29.3
2018-05-18T06:51:28.691Z,29.3
2018-05-18T07:01:26.334Z,30.4
2018-05-18T07:11:26.500Z,28.4
2018-05-18T07:21:26.721Z,28.5
2018-05-18T07:31:28.899Z,27.2
2018-05-18T07:41:27.212Z,26.0
2018-05-18T07:51:26.341Z,20.9
2018-05-18T08:01:26.037Z,21.4
2018-05-18T08:11:27.320Z,20.6
2018-05-18T08:21:26.292Z,20.9
2018-05-18T08:31:26.892Z,21.7
2018-05-18T08:41:26.523Z,22.7
2018-05-18T08:51:26.857Z,20.8
2018-05-18T09:01:26.791Z,20.5
2018-05-18T09:11:27.010Z,19.2
2018-05-18T09:21:26.945Z,20.1
2018-05-18T09:31:26.596Z,21.8
2018-05-18T09:41:26.506Z,22.9
2018-05-18T09:51:26.524Z,23.0
2018-05-18T10:01:26.809Z,22.7
2018-05-18T10:11:26.797Z,17.5
2018-05-18T10:21:27.019Z,18.0
2018-05-18T10:31:26.638Z,19.6
2018-05-18T10:41:27.207Z,19.2
2018-05-18T10:51:26.167Z,19.7
2018-05-18T11:01:26.191Z,19.3
2018-05-18T11:11:26.975Z,19.7
2018-05-18T11:21:26.572Z,20.6
2018-05-18T11:31:26.325Z,18.7
2018-05-18T11:41:26.377Z,17.9
2018-05-18T11:51:26.172Z,17.5
2018-05-18T12:01:25.899Z,17.3
2018-05-18T12:07:09.735Z,17.2
2018-05-18T12:11:27.060Z,17.1
2018-05-18T12:21:26.162Z,18.1
2018-05-18T12:31:26.456Z,18.3
2018-05-18T12:41:26.208Z,18.7
2018-05-18T12:51:26.168Z,20.4
2018-05-18T13:01:25.906Z,18.1
2018-05-18T13:11:27.565Z,17.7
2018-05-18T13:21:26.905Z,18.7
2018-05-18T13:31:27.503Z,22.6
2018-05-18T13:41:26.348Z,22.8
2018-05-18T13:51:26.365Z,22.2
2018-05-18T14:01:26.090Z,25.4
2018-05-18T14:11:26.877Z,23.9
2018-05-18T14:21:26.729Z,22.6
2018-05-18T14:31:27.316Z,24.0
2018-05-18T14:41:26.865Z,25.2
2018-05-18T14:51:27.549Z,25.8
2018-05-18T15:01:26.819Z,26.6
2018-05-18T15:11:26.706Z,27.8
2018-05-18T15:21:27.200Z,24.2
2018-05-18T15:31:25.821Z,26.8
2018-05-18T15:41:26.861Z,25.2
2018-05-18T15:51:29.382Z,24.2
2018-05-18T16:01:27.157Z,25.7
2018-05-18T16:11:25.837Z,24.9
2018-05-18T16:21:26.222Z,25.2
2018-05-18T16:31:26.008Z,24.5
2018-05-18T16:41:25.782Z,25.2
2018-05-18T16:51:26.646Z,21.5
2018-05-18T17:01:26.365Z,22.9
2018-05-18T17:11:26.666Z,22.2
2018-05-18T17:21:26.452Z,23.3
2018-05-18T17:31:26.381Z,22.5
2018-05-18T17:41:27.025Z,23.3
2018-05-18T17:51:27.426Z,23.0
2018-05-18T18:01:26.439Z,23.4
2018-05-18T18:11:26.836Z,24.4
2018-05-18T18:21:26.001Z,24.1
2018-05-18T18:31:26.710Z,24.4
2018-05-18T18:41:26.980Z,24.5
2018-05-18T18:51:27.287Z,25.9
2018-05-18T19:01:26.650Z,27.7
2018-05-18T19:11:26.502Z,27.3
2018-05-18T19:21:26.975Z,28.0
2018-05-18T19:31:27.770Z,26.8
2018-05-18T19:41:26.597Z,27.7
2018-05-18T19:51:27.286Z,27.2
2018-05-18T20:01:25.988Z,28.6
2018-05-18T20:11:26.692Z,28.4
2018-05-18T20:21:26.948Z,31.0
2018-05-18T20:31:27.432Z,31.3
2018-05-18T20:41:27.627Z,34.5
2018-05-18T20:51:27.382Z,33.5
2018-05-18T21:01:26.134Z,34.8
2018-05-18T21:11:26.068Z,33.6
2018-05-18T21:21:25.889Z,34.3
2018-05-18T21:31:26.630Z,37.0
2018-05-18T21:41:27.433Z,33.0
2018-05-18T21:51:26.407Z,31.8
2018-05-18T22:01:26.743Z,31.7
2018-05-18T22:11:27.941Z,33.3
2018-05-18T22:21:26.902Z,31.7
2018-05-18T22:31:27.009Z,31.4
2018-05-18T22:41:26.722Z,32.0
2018-05-18T22:51:27.818Z,30.7
2018-05-18T23:01:26.879Z,31.4
2018-05-18T23:11:26.951Z,30.0
2018-05-18T23:21:28.791Z,28.3
2018-05-18T23:31:26.306Z,26.3
2018-05-18T23:41:26.222Z,34.3
2018-05-18T23:51:26.745Z,26.5
